sensor_id;sensor_type;location;lat;lon;timestamp;P1;durP1;ratioP1;P2;durP2;ratioP2
19776;SDS011;10047;42.490;26.012;2023-02-01T00:01:23;6.75;;;4.63;;
19776;SDS011;10047;42.490;26.012;2023-02-01T00:03:49;6.28;;;4.63;;
19776;SDS011;10047;42.490;26.012;2023-02-01T00:06:14;6.25;;;4.43;;
19776;SDS011;10047;42.490;26.012;2023-02-01T00:08:39;6.40;;;4.25;;
19776;SDS011;10047;42.490;26.012;2023-02-01T00:11:06;5.38;;;4.07;;
19776;SDS011;10047;42.490;26.012;2023-02-01T00:13:34;6.25;;;4.35;;
19776;SDS011;10047;42.490;26.012;2023-02-01T00:16:06;5.90;;;3.85;;
19776;SDS011;10047;42.490;26.012;2023-02-01T00:18:39;5.43;;;4.07;;
19776;SDS011;10047;42.490;26.012;2023-02-01T00:21:05;5.63;;;4.50;;
19776;SDS011;10047;42.490;26.012;2023-02-01T00:23:34;5.18;;;4.35;;
19776;SDS011;10047;42.490;26.012;2023-02-01T00:26:01;6.13;;;4.00;;
19776;SDS011;10047;42.490;26.012;2023-02-01T00:28:27;6.15;;;4.47;;
19776;SDS011;10047;42.490;26.012;2023-02-01T00:30:59;7.18;;;5.07;;
19776;SDS011;10047;42.490;26.012;2023-02-01T00:33:27;6.78;;;5.30;;
19776;SDS011;10047;42.490;26.012;2023-02-01T00:36:00;7.45;;;5.05;;
19776;SDS011;10047;42.490;26.012;2023-02-01T00:38:27;7.18;;;4.55;;
19776;SDS011;10047;42.490;26.012;2023-02-01T00:40:54;7.13;;;4.85;;
19776;SDS011;10047;42.490;26.012;2023-02-01T00:43:19;6.15;;;4.75;;
19776;SDS011;10047;42.490;26.012;2023-02-01T00:46:02;6.43;;;5.07;;
19776;SDS011;10047;42.490;26.012;2023-02-01T00:48:28;7.85;;;5.13;;
19776;SDS011;10047;42.490;26.012;2023-02-01T00:50:53;7.50;;;5.72;;
19776;SDS011;10047;42.490;26.012;2023-02-01T00:53:19;8.07;;;6.15;;
19776;SDS011;10047;42.490;26.012;2023-02-01T00:55:45;7.38;;;5.38;;
19776;SDS011;10047;42.490;26.012;2023-02-01T00:58:11;8.98;;;5.97;;
19776;SDS011;10047;42.490;26.012;2023-02-01T01:00:37;8.85;;;5.10;;
19776;SDS011;10047;42.490;26.012;2023-02-01T01:03:03;8.52;;;5.63;;
19776;SDS011;10047;42.490;26.012;2023-02-01T01:05:43;15.05;;;8.27;;
19776;SDS011;10047;42.490;26.012;2023-02-01T01:08:12;7.93;;;5.22;;
19776;SDS011;10047;42.490;26.012;2023-02-01T01:10:38;6.07;;;4.85;;
19776;SDS011;10047;42.490;26.012;2023-02-01T01:13:04;7.20;;;4.95;;
19776;SDS011;10047;42.490;26.012;2023-02-01T01:15:30;6.82;;;5.05;;
19776;SDS011;10047;42.490;26.012;2023-02-01T01:17:55;7.68;;;5.63;;
19776;SDS011;10047;42.490;26.012;2023-02-01T01:20:21;9.05;;;6.00;;
19776;SDS011;10047;42.490;26.012;2023-02-01T01:22:47;6.60;;;5.70;;
19776;SDS011;10047;42.490;26.012;2023-02-01T01:25:13;7.30;;;5.50;;
19776;SDS011;10047;42.490;26.012;2023-02-01T01:27:39;6.60;;;5.50;;
19776;SDS011;10047;42.490;26.012;2023-02-01T01:30:04;8.23;;;5.63;;
19776;SDS011;10047;42.490;26.012;2023-02-01T01:32:30;6.95;;;5.28;;
19776;SDS011;10047;42.490;26.012;2023-02-01T01:34:56;10.75;;;6.13;;
19776;SDS011;10047;42.490;26.012;2023-02-01T01:37:21;7.60;;;6.60;;
19776;SDS011;10047;42.490;26.012;2023-02-01T01:39:47;6.13;;;4.82;;
19776;SDS011;10047;42.490;26.012;2023-02-01T01:42:12;6.95;;;5.07;;
19776;SDS011;10047;42.490;26.012;2023-02-01T01:44:56;10.52;;;6.35;;
19776;SDS011;10047;42.490;26.012;2023-02-01T01:47:48;12.05;;;7.13;;
19776;SDS011;10047;42.490;26.012;2023-02-01T01:50:18;10.63;;;6.47;;
19776;SDS011;10047;42.490;26.012;2023-02-01T01:52:48;10.38;;;6.07;;
19776;SDS011;10047;42.490;26.012;2023-02-01T01:55:17;8.60;;;6.32;;
19776;SDS011;10047;42.490;26.012;2023-02-01T01:57:46;6.88;;;5.28;;
19776;SDS011;10047;42.490;26.012;2023-02-01T02:00:18;6.53;;;5.20;;
19776;SDS011;10047;42.490;26.012;2023-02-01T02:02:48;8.05;;;5.07;;
19776;SDS011;10047;42.490;26.012;2023-02-01T02:05:20;6.18;;;5.28;;
19776;SDS011;10047;42.490;26.012;2023-02-01T02:07:46;8.82;;;6.40;;
19776;SDS011;10047;42.490;26.012;2023-02-01T02:10:16;8.05;;;5.88;;
19776;SDS011;10047;42.490;26.012;2023-02-01T02:12:42;7.22;;;5.75;;
19776;SDS011;10047;42.490;26.012;2023-02-01T02:15:12;9.60;;;6.90;;
19776;SDS011;10047;42.490;26.012;2023-02-01T02:39:51;7.57;;;5.57;;
19776;SDS011;10047;42.490;26.012;2023-02-01T02:42:27;8.25;;;6.57;;
19776;SDS011;10047;42.490;26.012;2023-02-01T02:48:36;9.20;;;6.47;;
19776;SDS011;10047;42.490;26.012;2023-02-01T02:54:07;8.63;;;6.43;;
19776;SDS011;10047;42.490;26.012;2023-02-01T02:56:56;8.52;;;6.38;;
19776;SDS011;10047;42.490;26.012;2023-02-01T02:59:42;8.27;;;6.40;;
19776;SDS011;10047;42.490;26.012;2023-02-01T03:02:27;9.20;;;6.55;;
19776;SDS011;10047;42.490;26.012;2023-02-01T03:05:13;7.15;;;5.65;;
19776;SDS011;10047;42.490;26.012;2023-02-01T03:19:08;15.25;;;9.20;;
19776;SDS011;10047;42.490;26.012;2023-02-01T03:24:10;14.23;;;9.25;;
19776;SDS011;10047;42.490;26.012;2023-02-01T03:26:49;14.27;;;10.00;;
19776;SDS011;10047;42.490;26.012;2023-02-01T03:29:24;8.95;;;7.20;;
19776;SDS011;10047;42.490;26.012;2023-02-01T03:31:55;10.65;;;7.72;;
19776;SDS011;10047;42.490;26.012;2023-02-01T03:34:21;8.38;;;6.50;;
19776;SDS011;10047;42.490;26.012;2023-02-01T03:37:06;7.03;;;5.53;;
19776;SDS011;10047;42.490;26.012;2023-02-01T03:42:24;6.00;;;5.07;;
19776;SDS011;10047;42.490;26.012;2023-02-01T03:45:17;6.32;;;4.47;;
19776;SDS011;10047;42.490;26.012;2023-02-01T03:47:48;6.70;;;4.68;;
19776;SDS011;10047;42.490;26.012;2023-02-01T03:50:21;4.53;;;3.80;;
19776;SDS011;10047;42.490;26.012;2023-02-01T03:53:02;7.18;;;5.10;;
19776;SDS011;10047;42.490;26.012;2023-02-01T03:55:32;5.95;;;4.43;;
19776;SDS011;10047;42.490;26.012;2023-02-01T03:58:01;7.10;;;5.30;;
19776;SDS011;10047;42.490;26.012;2023-02-01T04:00:45;6.72;;;5.35;;
19776;SDS011;10047;42.490;26.012;2023-02-01T04:03:15;4.97;;;4.07;;
19776;SDS011;10047;42.490;26.012;2023-02-01T04:05:40;8.60;;;6.10;;
19776;SDS011;10047;42.490;26.012;2023-02-01T04:08:06;9.05;;;6.97;;
19776;SDS011;10047;42.490;26.012;2023-02-01T04:10:31;9.82;;;6.75;;
19776;SDS011;10047;42.490;26.012;2023-02-01T04:12:56;9.68;;;6.53;;
19776;SDS011;10047;42.490;26.012;2023-02-01T04:15:22;11.88;;;8.88;;
19776;SDS011;10047;42.490;26.012;2023-02-01T04:17:49;12.48;;;10.13;;
19776;SDS011;10047;42.490;26.012;2023-02-01T04:20:14;11.55;;;9.15;;
19776;SDS011;10047;42.490;26.012;2023-02-01T04:22:40;13.10;;;9.63;;
19776;SDS011;10047;42.490;26.012;2023-02-01T04:25:05;11.20;;;8.68;;
19776;SDS011;10047;42.490;26.012;2023-02-01T04:27:31;11.63;;;9.32;;
19776;SDS011;10047;42.490;26.012;2023-02-01T04:29:57;13.68;;;9.55;;
19776;SDS011;10047;42.490;26.012;2023-02-01T04:32:22;12.65;;;10.13;;
19776;SDS011;10047;42.490;26.012;2023-02-01T04:34:48;10.90;;;8.23;;
19776;SDS011;10047;42.490;26.012;2023-02-01T04:37:13;12.00;;;9.15;;
19776;SDS011;10047;42.490;26.012;2023-02-01T04:39:39;10.93;;;8.48;;
19776;SDS011;10047;42.490;26.012;2023-02-01T04:42:04;12.38;;;10.20;;
19776;SDS011;10047;42.490;26.012;2023-02-01T04:44:29;14.80;;;10.75;;
19776;SDS011;10047;42.490;26.012;2023-02-01T04:46:55;19.40;;;12.80;;
19776;SDS011;10047;42.490;26.012;2023-02-01T04:49:20;15.32;;;10.77;;
19776;SDS011;10047;42.490;26.012;2023-02-01T04:51:46;15.63;;;11.60;;
19776;SDS011;10047;42.490;26.012;2023-02-01T04:54:12;14.00;;;11.93;;
19776;SDS011;10047;42.490;26.012;2023-02-01T04:56:38;16.45;;;12.75;;
19776;SDS011;10047;42.490;26.012;2023-02-01T04:59:04;16.00;;;12.38;;
19776;SDS011;10047;42.490;26.012;2023-02-01T05:01:30;19.55;;;12.43;;
19776;SDS011;10047;42.490;26.012;2023-02-01T05:03:55;19.80;;;13.38;;
19776;SDS011;10047;42.490;26.012;2023-02-01T05:06:21;15.90;;;10.95;;
19776;SDS011;10047;42.490;26.012;2023-02-01T05:08:47;17.17;;;10.82;;
19776;SDS011;10047;42.490;26.012;2023-02-01T05:11:13;21.52;;;14.80;;
19776;SDS011;10047;42.490;26.012;2023-02-01T05:13:57;126.22;;;64.03;;
19776;SDS011;10047;42.490;26.012;2023-02-01T05:16:26;51.28;;;32.55;;
19776;SDS011;10047;42.490;26.012;2023-02-01T05:18:51;42.45;;;27.73;;
19776;SDS011;10047;42.490;26.012;2023-02-01T05:21:17;36.78;;;24.88;;
19776;SDS011;10047;42.490;26.012;2023-02-01T05:23:43;30.33;;;21.20;;
19776;SDS011;10047;42.490;26.012;2023-02-01T05:26:27;40.35;;;27.35;;
19776;SDS011;10047;42.490;26.012;2023-02-01T05:28:53;25.92;;;17.83;;
19776;SDS011;10047;42.490;26.012;2023-02-01T05:31:18;29.70;;;22.75;;
19776;SDS011;10047;42.490;26.012;2023-02-01T05:33:44;22.67;;;17.65;;
19776;SDS011;10047;42.490;26.012;2023-02-01T05:36:09;23.83;;;18.63;;
19776;SDS011;10047;42.490;26.012;2023-02-01T05:38:34;25.75;;;17.67;;
19776;SDS011;10047;42.490;26.012;2023-02-01T05:41:00;27.42;;;19.63;;
19776;SDS011;10047;42.490;26.012;2023-02-01T05:43:25;29.15;;;21.90;;
19776;SDS011;10047;42.490;26.012;2023-02-01T05:45:51;28.75;;;15.30;;
19776;SDS011;10047;42.490;26.012;2023-02-01T05:48:17;24.17;;;16.27;;
19776;SDS011;10047;42.490;26.012;2023-02-01T05:50:43;22.98;;;16.38;;
19776;SDS011;10047;42.490;26.012;2023-02-01T05:53:08;16.90;;;11.20;;
19776;SDS011;10047;42.490;26.012;2023-02-01T05:55:34;18.27;;;13.98;;
19776;SDS011;10047;42.490;26.012;2023-02-01T05:57:59;14.95;;;11.43;;
19776;SDS011;10047;42.490;26.012;2023-02-01T06:00:25;17.13;;;12.75;;
19776;SDS011;10047;42.490;26.012;2023-02-01T06:02:50;26.83;;;18.33;;
19776;SDS011;10047;42.490;26.012;2023-02-01T06:05:16;55.90;;;35.92;;
19776;SDS011;10047;42.490;26.012;2023-02-01T06:07:41;34.53;;;25.67;;
19776;SDS011;10047;42.490;26.012;2023-02-01T06:10:07;50.38;;;32.03;;
19776;SDS011;10047;42.490;26.012;2023-02-01T06:12:33;36.20;;;21.10;;
19776;SDS011;10047;42.490;26.012;2023-02-01T06:14:58;24.90;;;17.38;;
19776;SDS011;10047;42.490;26.012;2023-02-01T06:17:24;17.83;;;11.93;;
19776;SDS011;10047;42.490;26.012;2023-02-01T06:19:50;31.65;;;22.20;;
19776;SDS011;10047;42.490;26.012;2023-02-01T06:22:15;43.10;;;32.08;;
19776;SDS011;10047;42.490;26.012;2023-02-01T06:24:41;21.52;;;14.00;;
19776;SDS011;10047;42.490;26.012;2023-02-01T06:27:06;13.00;;;9.30;;
19776;SDS011;10047;42.490;26.012;2023-02-01T06:29:32;12.38;;;9.98;;
19776;SDS011;10047;42.490;26.012;2023-02-01T06:31:58;17.73;;;12.23;;
19776;SDS011;10047;42.490;26.012;2023-02-01T06:34:24;24.73;;;17.30;;
19776;SDS011;10047;42.490;26.012;2023-02-01T06:36:49;21.10;;;15.82;;
19776;SDS011;10047;42.490;26.012;2023-02-01T06:39:15;23.52;;;16.27;;
19776;SDS011;10047;42.490;26.012;2023-02-01T06:41:41;22.17;;;16.27;;
19776;SDS011;10047;42.490;26.012;2023-02-01T06:44:08;23.98;;;16.67;;
19776;SDS011;10047;42.490;26.012;2023-02-01T06:46:33;18.52;;;14.02;;
19776;SDS011;10047;42.490;26.012;2023-02-01T06:48:59;21.98;;;15.32;;
19776;SDS011;10047;42.490;26.012;2023-02-01T06:51:26;24.10;;;17.38;;
19776;SDS011;10047;42.490;26.012;2023-02-01T06:53:52;32.45;;;22.05;;
19776;SDS011;10047;42.490;26.012;2023-02-01T06:56:17;50.72;;;36.58;;
19776;SDS011;10047;42.490;26.012;2023-02-01T06:58:43;52.05;;;35.90;;
19776;SDS011;10047;42.490;26.012;2023-02-01T07:01:09;44.50;;;31.10;;
19776;SDS011;10047;42.490;26.012;2023-02-01T07:03:36;22.55;;;16.92;;
19776;SDS011;10047;42.490;26.012;2023-02-01T07:06:01;22.20;;;14.75;;
19776;SDS011;10047;42.490;26.012;2023-02-01T07:08:27;16.15;;;10.50;;
19776;SDS011;10047;42.490;26.012;2023-02-01T07:10:54;13.57;;;10.48;;
19776;SDS011;10047;42.490;26.012;2023-02-01T07:13:19;29.55;;;23.67;;
19776;SDS011;10047;42.490;26.012;2023-02-01T07:15:45;32.22;;;24.83;;
19776;SDS011;10047;42.490;26.012;2023-02-01T07:18:12;16.35;;;14.30;;
19776;SDS011;10047;42.490;26.012;2023-02-01T07:20:40;12.90;;;10.07;;
19776;SDS011;10047;42.490;26.012;2023-02-01T07:23:08;21.73;;;18.75;;
19776;SDS011;10047;42.490;26.012;2023-02-01T07:25:35;23.88;;;18.95;;
19776;SDS011;10047;42.490;26.012;2023-02-01T07:28:00;22.63;;;17.85;;
19776;SDS011;10047;42.490;26.012;2023-02-01T07:30:26;17.30;;;11.70;;
19776;SDS011;10047;42.490;26.012;2023-02-01T07:32:51;12.60;;;8.50;;
19776;SDS011;10047;42.490;26.012;2023-02-01T07:35:17;13.65;;;11.25;;
19776;SDS011;10047;42.490;26.012;2023-02-01T07:37:42;14.80;;;10.63;;
19776;SDS011;10047;42.490;26.012;2023-02-01T07:40:08;8.65;;;7.22;;
19776;SDS011;10047;42.490;26.012;2023-02-01T07:42:34;10.27;;;7.45;;
19776;SDS011;10047;42.490;26.012;2023-02-01T07:47:28;7.32;;;6.35;;
19776;SDS011;10047;42.490;26.012;2023-02-01T07:49:54;13.52;;;10.25;;
19776;SDS011;10047;42.490;26.012;2023-02-01T07:52:19;9.48;;;6.20;;
19776;SDS011;10047;42.490;26.012;2023-02-01T07:54:44;11.35;;;7.47;;
19776;SDS011;10047;42.490;26.012;2023-02-01T07:57:10;8.95;;;6.13;;
19776;SDS011;10047;42.490;26.012;2023-02-01T07:59:36;8.15;;;6.20;;
19776;SDS011;10047;42.490;26.012;2023-02-01T08:02:22;9.23;;;6.63;;
19776;SDS011;10047;42.490;26.012;2023-02-01T08:04:47;10.13;;;7.00;;
19776;SDS011;10047;42.490;26.012;2023-02-01T08:07:13;8.52;;;6.53;;
19776;SDS011;10047;42.490;26.012;2023-02-01T08:09:38;8.48;;;6.40;;
19776;SDS011;10047;42.490;26.012;2023-02-01T08:12:04;9.82;;;6.90;;
19776;SDS011;10047;42.490;26.012;2023-02-01T08:14:29;11.13;;;6.10;;
19776;SDS011;10047;42.490;26.012;2023-02-01T08:16:54;10.45;;;7.18;;
19776;SDS011;10047;42.490;26.012;2023-02-01T08:19:20;9.10;;;6.45;;
19776;SDS011;10047;42.490;26.012;2023-02-01T08:21:45;11.73;;;8.40;;
19776;SDS011;10047;42.490;26.012;2023-02-01T08:24:13;10.85;;;6.97;;
19776;SDS011;10047;42.490;26.012;2023-02-01T08:26:39;14.40;;;10.48;;
19776;SDS011;10047;42.490;26.012;2023-02-01T08:29:05;9.18;;;7.15;;
19776;SDS011;10047;42.490;26.012;2023-02-01T08:31:31;11.90;;;7.97;;
19776;SDS011;10047;42.490;26.012;2023-02-01T08:33:58;17.85;;;10.63;;
19776;SDS011;10047;42.490;26.012;2023-02-01T08:36:26;17.40;;;12.38;;
19776;SDS011;10047;42.490;26.012;2023-02-01T08:38:53;23.30;;;14.98;;
19776;SDS011;10047;42.490;26.012;2023-02-01T08:41:20;7.30;;;4.30;;
19776;SDS011;10047;42.490;26.012;2023-02-01T08:43:47;8.90;;;5.15;;
19776;SDS011;10047;42.490;26.012;2023-02-01T08:46:12;7.00;;;4.30;;
19776;SDS011;10047;42.490;26.012;2023-02-01T08:48:39;8.35;;;4.93;;
19776;SDS011;10047;42.490;26.012;2023-02-01T08:51:06;10.18;;;5.35;;
19776;SDS011;10047;42.490;26.012;2023-02-01T08:53:35;9.60;;;5.38;;
19776;SDS011;10047;42.490;26.012;2023-02-01T08:56:01;12.68;;;7.10;;
19776;SDS011;10047;42.490;26.012;2023-02-01T08:58:27;10.70;;;6.78;;
19776;SDS011;10047;42.490;26.012;2023-02-01T09:00:52;9.63;;;6.43;;
19776;SDS011;10047;42.490;26.012;2023-02-01T09:03:18;9.73;;;6.40;;
19776;SDS011;10047;42.490;26.012;2023-02-01T09:05:44;8.88;;;6.28;;
19776;SDS011;10047;42.490;26.012;2023-02-01T09:08:10;9.57;;;6.10;;
19776;SDS011;10047;42.490;26.012;2023-02-01T09:10:38;7.95;;;5.35;;
19776;SDS011;10047;42.490;26.012;2023-02-01T09:13:03;10.68;;;7.68;;
19776;SDS011;10047;42.490;26.012;2023-02-01T09:15:30;10.50;;;8.07;;
19776;SDS011;10047;42.490;26.012;2023-02-01T09:17:56;10.32;;;7.50;;
19776;SDS011;10047;42.490;26.012;2023-02-01T09:20:21;13.80;;;8.18;;
19776;SDS011;10047;42.490;26.012;2023-02-01T09:22:49;10.05;;;6.95;;
19776;SDS011;10047;42.490;26.012;2023-02-01T09:25:16;11.77;;;8.73;;
19776;SDS011;10047;42.490;26.012;2023-02-01T09:27:41;13.70;;;7.90;;
19776;SDS011;10047;42.490;26.012;2023-02-01T09:30:07;9.88;;;6.43;;
19776;SDS011;10047;42.490;26.012;2023-02-01T09:32:33;11.68;;;8.10;;
19776;SDS011;10047;42.490;26.012;2023-02-01T09:34:58;10.68;;;6.68;;
19776;SDS011;10047;42.490;26.012;2023-02-01T09:37:24;11.30;;;6.40;;
19776;SDS011;10047;42.490;26.012;2023-02-01T09:39:49;6.60;;;4.88;;
19776;SDS011;10047;42.490;26.012;2023-02-01T09:42:17;9.68;;;5.32;;
19776;SDS011;10047;42.490;26.012;2023-02-01T09:47:50;10.15;;;6.25;;
19776;SDS011;10047;42.490;26.012;2023-02-01T09:50:21;12.52;;;6.97;;
19776;SDS011;10047;42.490;26.012;2023-02-01T10:15:13;20.77;;;14.50;;
19776;SDS011;10047;42.490;26.012;2023-02-01T10:23:49;9.68;;;7.43;;
19776;SDS011;10047;42.490;26.012;2023-02-01T10:26:25;11.48;;;7.15;;
19776;SDS011;10047;42.490;26.012;2023-02-01T10:28:58;17.58;;;11.35;;
19776;SDS011;10047;42.490;26.012;2023-02-01T10:31:27;15.38;;;9.80;;
19776;SDS011;10047;42.490;26.012;2023-02-01T10:33:56;19.27;;;9.70;;
19776;SDS011;10047;42.490;26.012;2023-02-01T10:36:25;26.35;;;14.18;;
19776;SDS011;10047;42.490;26.012;2023-02-01T10:38:57;14.15;;;9.00;;
19776;SDS011;10047;42.490;26.012;2023-02-01T10:41:24;8.20;;;5.15;;
19776;SDS011;10047;42.490;26.012;2023-02-01T10:43:57;8.05;;;5.75;;
19776;SDS011;10047;42.490;26.012;2023-02-01T10:46:24;14.68;;;8.98;;
19776;SDS011;10047;42.490;26.012;2023-02-01T10:48:50;13.15;;;6.95;;
19776;SDS011;10047;42.490;26.012;2023-02-01T10:51:21;9.75;;;6.30;;
19776;SDS011;10047;42.490;26.012;2023-02-01T10:56:22;17.05;;;10.95;;
19776;SDS011;10047;42.490;26.012;2023-02-01T10:58:49;21.73;;;13.38;;
19776;SDS011;10047;42.490;26.012;2023-02-01T11:01:17;15.60;;;10.55;;
19776;SDS011;10047;42.490;26.012;2023-02-01T11:08:52;11.57;;;7.88;;
19776;SDS011;10047;42.490;26.012;2023-02-01T11:11:20;12.57;;;7.53;;
19776;SDS011;10047;42.490;26.012;2023-02-01T11:13:51;9.70;;;7.88;;
19776;SDS011;10047;42.490;26.012;2023-02-01T11:16:18;9.65;;;5.32;;
19776;SDS011;10047;42.490;26.012;2023-02-01T11:18:44;8.35;;;5.30;;
19776;SDS011;10047;42.490;26.012;2023-02-01T11:21:10;8.73;;;5.57;;
19776;SDS011;10047;42.490;26.012;2023-02-01T11:23:40;8.90;;;6.40;;
19776;SDS011;10047;42.490;26.012;2023-02-01T11:26:27;4.75;;;3.28;;
19776;SDS011;10047;42.490;26.012;2023-02-01T11:29:04;8.00;;;4.47;;
19776;SDS011;10047;42.490;26.012;2023-02-01T11:31:35;9.20;;;4.80;;
19776;SDS011;10047;42.490;26.012;2023-02-01T11:36:53;7.88;;;5.68;;
19776;SDS011;10047;42.490;26.012;2023-02-01T11:39:28;16.45;;;8.88;;
19776;SDS011;10047;42.490;26.012;2023-02-01T11:49:54;10.85;;;7.70;;
19776;SDS011;10047;42.490;26.012;2023-02-01T11:55:02;19.67;;;9.40;;
19776;SDS011;10047;42.490;26.012;2023-02-01T12:08:46;12.25;;;8.48;;
19776;SDS011;10047;42.490;26.012;2023-02-01T12:39:22;15.00;;;11.20;;
19776;SDS011;10047;42.490;26.012;2023-02-01T12:41:53;42.00;;;16.33;;
19776;SDS011;10047;42.490;26.012;2023-02-01T12:47:14;20.38;;;11.65;;
19776;SDS011;10047;42.490;26.012;2023-02-01T12:50:12;16.13;;;10.27;;
19776;SDS011;10047;42.490;26.012;2023-02-01T12:52:47;11.77;;;8.10;;
19776;SDS011;10047;42.490;26.012;2023-02-01T12:57:46;19.17;;;11.18;;
19776;SDS011;10047;42.490;26.012;2023-02-01T13:03:02;19.33;;;12.80;;
19776;SDS011;10047;42.490;26.012;2023-02-01T13:05:50;22.90;;;16.60;;
19776;SDS011;10047;42.490;26.012;2023-02-01T13:08:25;22.15;;;14.50;;
19776;SDS011;10047;42.490;26.012;2023-02-01T13:11:03;10.45;;;8.30;;
19776;SDS011;10047;42.490;26.012;2023-02-01T13:16:41;13.80;;;7.50;;
19776;SDS011;10047;42.490;26.012;2023-02-01T13:19:40;20.05;;;11.48;;
19776;SDS011;10047;42.490;26.012;2023-02-01T13:22:22;37.13;;;20.88;;
19776;SDS011;10047;42.490;26.012;2023-02-01T13:25:03;26.45;;;12.73;;
19776;SDS011;10047;42.490;26.012;2023-02-01T13:27:37;38.78;;;19.25;;
19776;SDS011;10047;42.490;26.012;2023-02-01T13:30:16;11.90;;;6.03;;
19776;SDS011;10047;42.490;26.012;2023-02-01T13:37:54;9.35;;;5.30;;
19776;SDS011;10047;42.490;26.012;2023-02-01T13:42:51;6.85;;;4.50;;
19776;SDS011;10047;42.490;26.012;2023-02-01T13:45:24;10.50;;;5.72;;
19776;SDS011;10047;42.490;26.012;2023-02-01T13:47:59;65.75;;;38.60;;
19776;SDS011;10047;42.490;26.012;2023-02-01T13:50:36;20.65;;;12.05;;
19776;SDS011;10047;42.490;26.012;2023-02-01T13:55:46;22.27;;;14.13;;
19776;SDS011;10047;42.490;26.012;2023-02-01T13:58:21;19.83;;;12.57;;
19776;SDS011;10047;42.490;26.012;2023-02-01T14:01:31;14.20;;;8.80;;
19776;SDS011;10047;42.490;26.012;2023-02-01T14:03:49;18.17;;;10.45;;
19776;SDS011;10047;42.490;26.012;2023-02-01T14:08:45;5.30;;;3.45;;
19776;SDS011;10047;42.490;26.012;2023-02-01T14:11:32;13.35;;;8.23;;
19776;SDS011;10047;42.490;26.012;2023-02-01T14:14:07;6.57;;;4.55;;
19776;SDS011;10047;42.490;26.012;2023-02-01T14:16:38;11.60;;;7.22;;
19776;SDS011;10047;42.490;26.012;2023-02-01T14:19:06;10.35;;;6.60;;
19776;SDS011;10047;42.490;26.012;2023-02-01T14:21:34;19.98;;;5.85;;
19776;SDS011;10047;42.490;26.012;2023-02-01T14:26:52;9.40;;;5.00;;
19776;SDS011;10047;42.490;26.012;2023-02-01T14:32:06;8.75;;;5.18;;
19776;SDS011;10047;42.490;26.012;2023-02-01T14:37:33;6.38;;;4.22;;
19776;SDS011;10047;42.490;26.012;2023-02-01T14:42:43;7.88;;;5.43;;
19776;SDS011;10047;42.490;26.012;2023-02-01T14:47:44;8.07;;;4.40;;
19776;SDS011;10047;42.490;26.012;2023-02-01T14:50:19;9.20;;;4.72;;
19776;SDS011;10047;42.490;26.012;2023-02-01T15:00:51;15.80;;;9.27;;
19776;SDS011;10047;42.490;26.012;2023-02-01T15:03:25;21.98;;;10.52;;
19776;SDS011;10047;42.490;26.012;2023-02-01T15:09:04;21.15;;;10.55;;
19776;SDS011;10047;42.490;26.012;2023-02-01T15:12:01;20.77;;;11.13;;
19776;SDS011;10047;42.490;26.012;2023-02-01T15:14:34;10.73;;;6.72;;
19776;SDS011;10047;42.490;26.012;2023-02-01T15:17:01;9.00;;;5.20;;
19776;SDS011;10047;42.490;26.012;2023-02-01T15:19:28;12.50;;;5.18;;
19776;SDS011;10047;42.490;26.012;2023-02-01T15:21:56;12.40;;;5.53;;
19776;SDS011;10047;42.490;26.012;2023-02-01T15:26:50;14.40;;;8.98;;
19776;SDS011;10047;42.490;26.012;2023-02-01T15:29:18;16.00;;;9.77;;
19776;SDS011;10047;42.490;26.012;2023-02-01T15:31:51;15.73;;;7.65;;
19776;SDS011;10047;42.490;26.012;2023-02-01T15:34:17;12.70;;;8.00;;
19776;SDS011;10047;42.490;26.012;2023-02-01T15:36:44;11.27;;;5.43;;
19776;SDS011;10047;42.490;26.012;2023-02-01T15:39:11;18.80;;;14.45;;
19776;SDS011;10047;42.490;26.012;2023-02-01T15:41:37;13.32;;;9.23;;
19776;SDS011;10047;42.490;26.012;2023-02-01T15:44:04;8.68;;;5.80;;
19776;SDS011;10047;42.490;26.012;2023-02-01T15:46:41;12.10;;;9.38;;
19776;SDS011;10047;42.490;26.012;2023-02-01T15:51:52;6.07;;;4.07;;
19776;SDS011;10047;42.490;26.012;2023-02-01T15:54:22;7.57;;;4.40;;
19776;SDS011;10047;42.490;26.012;2023-02-01T15:57:10;5.38;;;3.97;;
19776;SDS011;10047;42.490;26.012;2023-02-01T15:59:45;7.43;;;3.83;;
19776;SDS011;10047;42.490;26.012;2023-02-01T16:02:41;8.25;;;5.78;;
19776;SDS011;10047;42.490;26.012;2023-02-01T16:08:20;9.68;;;6.45;;
19776;SDS011;10047;42.490;26.012;2023-02-01T16:10:50;18.02;;;11.35;;
19776;SDS011;10047;42.490;26.012;2023-02-01T16:13:19;13.50;;;9.30;;
19776;SDS011;10047;42.490;26.012;2023-02-01T16:15:45;17.42;;;11.30;;
19776;SDS011;10047;42.490;26.012;2023-02-01T16:18:12;51.35;;;30.67;;
19776;SDS011;10047;42.490;26.012;2023-02-01T16:20:39;54.38;;;25.70;;
19776;SDS011;10047;42.490;26.012;2023-02-01T16:23:06;41.95;;;20.52;;
19776;SDS011;10047;42.490;26.012;2023-02-01T16:25:33;20.92;;;10.95;;
19776;SDS011;10047;42.490;26.012;2023-02-01T16:27:59;16.40;;;7.88;;
19776;SDS011;10047;42.490;26.012;2023-02-01T16:30:24;21.65;;;10.50;;
19776;SDS011;10047;42.490;26.012;2023-02-01T16:32:57;26.67;;;14.60;;
19776;SDS011;10047;42.490;26.012;2023-02-01T16:35:28;14.05;;;7.90;;
19776;SDS011;10047;42.490;26.012;2023-02-01T16:38:00;24.75;;;14.02;;
19776;SDS011;10047;42.490;26.012;2023-02-01T16:40:26;30.77;;;20.60;;
19776;SDS011;10047;42.490;26.012;2023-02-01T16:42:52;48.22;;;20.38;;
19776;SDS011;10047;42.490;26.012;2023-02-01T16:45:21;86.35;;;52.78;;
19776;SDS011;10047;42.490;26.012;2023-02-01T16:47:48;61.72;;;38.85;;
19776;SDS011;10047;42.490;26.012;2023-02-01T16:50:26;44.78;;;27.23;;
19776;SDS011;10047;42.490;26.012;2023-02-01T16:52:52;17.67;;;12.18;;
19776;SDS011;10047;42.490;26.012;2023-02-01T16:55:19;12.23;;;7.80;;
19776;SDS011;10047;42.490;26.012;2023-02-01T17:00:15;8.73;;;5.57;;
19776;SDS011;10047;42.490;26.012;2023-02-01T17:02:41;7.78;;;4.60;;
19776;SDS011;10047;42.490;26.012;2023-02-01T17:05:07;9.65;;;5.10;;
19776;SDS011;10047;42.490;26.012;2023-02-01T17:07:34;21.95;;;13.57;;
19776;SDS011;10047;42.490;26.012;2023-02-01T17:10:01;24.90;;;18.02;;
19776;SDS011;10047;42.490;26.012;2023-02-01T17:12:29;32.65;;;24.02;;
19776;SDS011;10047;42.490;26.012;2023-02-01T17:14:56;7.72;;;6.15;;
19776;SDS011;10047;42.490;26.012;2023-02-01T17:17:22;20.33;;;13.52;;
19776;SDS011;10047;42.490;26.012;2023-02-01T17:19:50;10.50;;;7.55;;
19776;SDS011;10047;42.490;26.012;2023-02-01T17:22:21;15.70;;;9.35;;
19776;SDS011;10047;42.490;26.012;2023-02-01T17:24:48;7.68;;;4.68;;
19776;SDS011;10047;42.490;26.012;2023-02-01T17:27:14;5.30;;;2.67;;
19776;SDS011;10047;42.490;26.012;2023-02-01T17:29:41;9.60;;;6.45;;
19776;SDS011;10047;42.490;26.012;2023-02-01T17:32:17;11.90;;;8.18;;
19776;SDS011;10047;42.490;26.012;2023-02-01T17:34:45;7.97;;;4.80;;
19776;SDS011;10047;42.490;26.012;2023-02-01T17:37:15;17.73;;;10.07;;
19776;SDS011;10047;42.490;26.012;2023-02-01T17:39:54;20.02;;;13.65;;
19776;SDS011;10047;42.490;26.012;2023-02-01T17:42:19;21.48;;;14.18;;
19776;SDS011;10047;42.490;26.012;2023-02-01T17:44:45;34.42;;;20.70;;
19776;SDS011;10047;42.490;26.012;2023-02-01T17:47:11;32.85;;;22.85;;
19776;SDS011;10047;42.490;26.012;2023-02-01T17:49:36;19.80;;;13.57;;
19776;SDS011;10047;42.490;26.012;2023-02-01T17:52:06;12.45;;;8.05;;